Mentor, MN

7:13 AM CST on December 18, 2014 (GMT -0600)
Rural Gentilly | Change Station
CLOSE
Current Station
Personal Weather Station
Location: Red Lake Falls, MN
Elevation: 1014 ft
Nearby Weather Stations

Elev 1014 ft 47.82 °N, 96.37 °W | Updated 27 minutes ago

Partly Cloudy
Partly Cloudy
6.1 °F
Feels Like 0 °F
N
3.1
Wind Variable Wind from SE

Today
High -- | Low -- °F
--% Chance of Precip.
Yesterday
High -- | Low -- °F
Precip. -- in
8:08 AM 4:34 PM
Waning Crescent, 14% visible
Pressure 30.25 in
Visibility 10.0 miles
Clouds Clear
Windchill 0 °F
Dew Point 5 °F
Humidity 97%
Rainfall 0.00 in
Snow Depth Not available.
UV 0 out of 12
Pollen .10 out of 12
Air Quality Not available.
Flu Activity Not available.
METAR KFSE 181235Z AUTO 00000KT 10SM CLR M15/M17 A3025 RMK AO2

More Conditions Fewer Conditions

Pressure 30.25 in
Visibility 10.0 miles
Clouds Clear
Windchill 0 °F
Dew Point 5 °F
Humidity 97%
Rainfall 0.00 in
Snow Depth Not available.
UV 0 out of 12
Pollen .10 out of 12
Air Quality Not available.
Flu Activity Not available.
METAR KFSE 181235Z AUTO 00000KT 10SM CLR M15/M17 A3025 RMK AO2

More Conditions Fewer Conditions

10-Day Weather Forecast

Almanac

Astronomy

Dec. 18, 2014 Rise Set
Actual Time
Civil Twilight
Nautical Twilight
Astronomical Twilight
Moon
Length of Visible Light
Length of Day
Tomorrow will be .
, % of the Moon is Illuminated

Today's Extremes

State Highs State Lows

Community

WunderPhotos

Upload Photos

1,778,925 photos uploaded!

WunderBlogs® & News

Nearby

Air Quality

  Air Quality AQ Index Pollutant
Not available.

Snow Depth

Station Depth Elevation

Earthquake Activity

City Distance Mag. Time & Date
Minimum magnitude displayed is 2.5.

Coastal Water Temperatures

Place Temperature

Nearby Weather Stations